Time;durP1;ratioP1;P1;durP2;ratioP2;P2;SDS_P1;SDS_P2;PMS_P1;PMS_P2;Temp;Humidity;BMP_temperature;BMP_pressure;BME280_temperature;BME280_humidity;BME280_pressure;Samples;Min_cycle;Max_cycle;Signal;HPM_P1;HPM_P2
2023/01/18 00:00:09;;;;;;;5.53;3.10;;;16.50;52.20;;;;;;5103606;27;45554;-68
2023/01/18 00:02:36;;;;;;;5.95;3.13;;;16.60;52.60;;;;;;5102537;27;47592;-68
2023/01/18 00:05:05;;;;;;;6.43;3.25;;;16.50;52.90;;;;;;5103035;27;46305;-68
2023/01/18 00:07:31;;;;;;;7.90;3.55;;;16.50;52.90;;;;;;5102185;27;45429;-68
2023/01/18 00:09:58;;;;;;;7.25;3.22;;;16.60;53.00;;;;;;5097645;27;45434;-68
2023/01/18 00:12:25;;;;;;;6.70;3.58;;;16.60;52.80;;;;;;5102989;27;46633;-69
2023/01/18 00:14:52;;;;;;;7.22;3.35;;;16.60;53.00;;;;;;5103120;27;45311;-68
2023/01/18 00:17:18;;;;;;;7.68;3.45;;;16.60;53.20;;;;;;5102361;27;45313;-69
2023/01/18 00:19:45;;;;;;;6.30;3.30;;;16.60;52.90;;;;;;5103609;27;45197;-68
2023/01/18 00:22:13;;;;;;;6.15;3.38;;;16.50;51.80;;;;;;5102729;27;46455;-69
2023/01/18 00:24:40;;;;;;;5.20;3.28;;;16.50;51.10;;;;;;5101837;27;45500;-68
2023/01/18 00:27:09;;;;;;;6.18;3.67;;;16.50;50.70;;;;;;5097385;27;45294;-68
2023/01/18 00:29:36;;;;;;;5.03;3.35;;;16.50;50.70;;;;;;5103308;27;45539;-68
2023/01/18 00:32:03;;;;;;;4.47;3.00;;;16.50;50.70;;;;;;5102958;27;45410;-68
2023/01/18 00:34:30;;;;;;;7.20;3.53;;;16.50;50.70;;;;;;5109410;27;45418;-68
2023/01/18 00:36:56;;;;;;;6.70;3.53;;;16.50;50.70;;;;;;5102728;27;45245;-68
2023/01/18 00:39:24;;;;;;;6.50;3.88;;;16.50;50.70;;;;;;5108811;27;45418;-68
2023/01/18 00:44:35;;;;;;;5.90;3.20;;;16.50;50.70;;;;;;5102356;27;45423;-68
2023/01/18 00:47:02;;;;;;;5.30;3.50;;;16.50;50.70;;;;;;5107548;27;45392;-68
2023/01/18 00:49:29;;;;;;;6.45;3.50;;;16.50;50.70;;;;;;5106075;27;45431;-68
2023/01/18 00:51:55;;;;;;;6.90;3.63;;;16.50;50.70;;;;;;5110801;27;46525;-68
2023/01/18 00:54:24;;;;;;;5.80;3.22;;;16.50;50.70;;;;;;5103797;27;45194;-68
2023/01/18 00:56:50;;;;;;;5.50;3.10;;;16.50;51.40;;;;;;5102049;27;45355;-67
2023/01/18 00:59:17;;;;;;;6.55;3.60;;;16.50;51.80;;;;;;5105513;27;45550;-68
2023/01/18 01:01:44;;;;;;;5.35;3.17;;;16.50;51.80;;;;;;5111072;27;48096;-68
2023/01/18 01:06:55;;;;;;;6.05;3.55;;;16.50;52.20;;;;;;5108862;27;45548;-68
2023/01/18 01:09:25;;;;;;;7.60;3.58;;;16.50;52.40;;;;;;5108231;27;45329;-68
2023/01/18 01:28:25;;;;;;;5.40;3.03;;;16.50;50.70;;;;;;5102836;27;45464;-68
2023/01/18 01:30:51;;;;;;;5.50;3.33;;;16.50;50.70;;;;;;5096147;27;45268;-68
2023/01/18 01:33:18;;;;;;;6.15;3.20;;;16.50;50.70;;;;;;5100482;27;45465;-68
2023/01/18 01:35:45;;;;;;;7.35;3.28;;;16.50;50.70;;;;;;5102931;27;45435;-68
2023/01/18 01:38:11;;;;;;;8.57;4.25;;;16.50;50.40;;;;;;5105860;27;45525;-68
2023/01/18 01:40:40;;;;;;;6.18;3.33;;;16.50;50.70;;;;;;5107409;27;45562;-68
2023/01/18 01:43:12;;;;;;;7.68;3.50;;;16.40;50.30;;;;;;5106101;27;45481;-68
2023/01/18 01:45:39;;;;;;;7.22;3.22;;;16.40;50.30;;;;;;5109074;27;45340;-68
2023/01/18 01:48:08;;;;;;;4.72;3.30;;;16.50;50.70;;;;;;5105324;27;45412;-68
2023/01/18 01:50:38;;;;;;;9.73;3.38;;;16.50;50.70;;;;;;5106423;27;45598;-68
2023/01/18 01:53:05;;;;;;;7.65;3.58;;;16.50;51.30;;;;;;5105203;27;48357;-68
2023/01/18 01:55:34;;;;;;;4.97;3.15;;;16.50;50.70;;;;;;5106679;27;45427;-68
2023/01/18 01:58:07;;;;;;;5.70;3.03;;;16.50;51.40;;;;;;5109704;27;45528;-68
2023/01/18 02:00:34;;;;;;;9.82;3.55;;;16.50;51.40;;;;;;5107777;27;45284;-68
2023/01/18 02:03:03;;;;;;;5.28;2.97;;;16.50;51.50;;;;;;5111875;27;45415;-67
2023/01/18 02:05:33;;;;;;;6.13;3.30;;;16.50;52.60;;;;;;5112037;27;45276;-68
2023/01/18 02:08:02;;;;;;;6.13;3.50;;;16.50;51.60;;;;;;5108171;27;45347;-68
2023/01/18 02:10:29;;;;;;;5.95;3.25;;;16.50;51.20;;;;;;5106153;27;45488;-68
2023/01/18 02:12:57;;;;;;;6.55;2.88;;;16.50;50.70;;;;;;5108102;27;45480;-68
2023/01/18 02:15:32;;;;;;;9.75;3.17;;;16.50;50.70;;;;;;5104396;27;45353;-68
2023/01/18 02:18:10;;;;;;;6.82;3.10;;;16.50;50.70;;;;;;5105992;27;45405;-69
2023/01/18 02:20:59;;;;;;;6.35;3.03;;;16.50;50.20;;;;;;5105281;27;45422;-68
2023/01/18 02:23:34;;;;;;;5.30;3.15;;;16.50;50.00;;;;;;5100253;27;45344;-68
2023/01/18 02:26:33;;;;;;;4.75;3.08;;;16.50;50.10;;;;;;5112481;27;46053;-68
2023/01/18 02:29:12;;;;;;;6.00;3.05;;;16.40;50.10;;;;;;5107568;27;45318;-68
2023/01/18 02:31:46;;;;;;;5.57;3.17;;;16.40;50.00;;;;;;5105071;27;45422;-68
2023/01/18 02:34:21;;;;;;;6.57;3.42;;;16.40;50.00;;;;;;5104873;27;45244;-68
2023/01/18 02:36:56;;;;;;;6.55;3.00;;;16.40;49.90;;;;;;5100973;27;45393;-68
2023/01/18 02:39:37;;;;;;;5.60;3.10;;;16.40;50.10;;;;;;5092722;27;45327;-69
2023/01/18 02:47:42;;;;;;;4.47;2.85;;;16.40;50.70;;;;;;5100973;27;45340;-68
2023/01/18 02:50:10;;;;;;;4.40;2.90;;;16.50;50.70;;;;;;5094562;27;45299;-68
2023/01/18 02:52:46;;;;;;;5.55;3.13;;;16.50;50.80;;;;;;5096785;27;45377;-68
2023/01/18 02:55:21;;;;;;;6.03;2.88;;;16.50;50.70;;;;;;5099189;27;45272;-68
2023/01/18 02:57:48;;;;;;;6.13;3.30;;;16.50;50.70;;;;;;5104632;27;45339;-68
2023/01/18 03:00:18;;;;;;;4.22;2.88;;;16.50;50.70;;;;;;5101006;27;45321;-68
2023/01/18 03:02:47;;;;;;;5.47;3.03;;;16.50;50.80;;;;;;5107124;27;45412;-68
2023/01/18 03:05:15;;;;;;;6.93;3.03;;;16.50;50.70;;;;;;5103923;27;45422;-68
2023/01/18 03:07:47;;;;;;;5.97;2.90;;;16.50;50.70;;;;;;5110283;27;45364;-68
2023/01/18 03:10:16;;;;;;;5.57;2.95;;;16.50;50.70;;;;;;5104164;27;45323;-68
2023/01/18 03:12:49;;;;;;;7.70;3.38;;;16.50;49.70;;;;;;5104586;27;45315;-67
2023/01/18 03:15:25;;;;;;;5.10;3.00;;;16.50;49.50;;;;;;5100780;27;47991;-68
2023/01/18 03:17:56;;;;;;;5.10;2.80;;;16.50;49.20;;;;;;5101006;27;45427;-68
2023/01/18 03:20:26;;;;;;;5.80;2.65;;;16.40;49.10;;;;;;5104532;27;45455;-67
2023/01/18 03:25:46;;;;;;;5.78;3.30;;;16.40;49.20;;;;;;5108796;27;45786;-68
2023/01/18 03:33:57;;;;;;;5.38;2.95;;;16.40;49.10;;;;;;5098962;27;45502;-68
2023/01/18 03:36:28;;;;;;;5.40;2.95;;;16.40;49.20;;;;;;5100349;27;47923;-68
2023/01/18 03:38:59;;;;;;;5.53;3.15;;;16.40;48.90;;;;;;5103472;27;45322;-68
2023/01/18 03:41:30;;;;;;;7.40;3.10;;;16.40;49.60;;;;;;5104560;27;45411;-69
2023/01/18 03:44:02;;;;;;;4.68;2.90;;;16.40;50.50;;;;;;5108968;27;45340;-68
2023/01/18 03:46:32;;;;;;;5.65;3.10;;;16.40;50.70;;;;;;5102046;27;46309;-68
2023/01/18 03:48:59;;;;;;;4.70;2.80;;;16.50;50.70;;;;;;5109024;27;45398;-68
2023/01/18 03:51:37;;;;;;;4.85;2.72;;;16.40;50.70;;;;;;5104406;27;45407;-68
2023/01/18 03:54:10;;;;;;;6.20;3.15;;;16.50;50.70;;;;;;5104244;27;45261;-68
2023/01/18 03:56:43;;;;;;;6.40;2.90;;;16.40;50.70;;;;;;5097146;27;48346;-68
2023/01/18 03:59:10;;;;;;;4.97;3.10;;;16.40;50.70;;;;;;5103968;27;45252;-68
2023/01/18 04:01:39;;;;;;;4.93;2.63;;;16.50;50.70;;;;;;5109103;27;45459;-68
2023/01/18 04:04:05;;;;;;;5.13;3.10;;;16.40;50.10;;;;;;5102380;27;45344;-68
2023/01/18 04:06:33;;;;;;;4.25;2.58;;;16.50;50.10;;;;;;5107096;27;45330;-68
2023/01/18 04:09:00;;;;;;;4.63;2.83;;;16.40;49.80;;;;;;5096392;27;46455;-68
2023/01/18 04:11:26;;;;;;;4.25;2.88;;;16.40;49.30;;;;;;5108100;27;45438;-68
2023/01/18 04:13:53;;;;;;;5.03;3.03;;;16.40;49.30;;;;;;5103458;27;45225;-68
2023/01/18 04:16:20;;;;;;;7.50;3.58;;;16.40;49.00;;;;;;5102344;27;45471;-67
2023/01/18 04:18:48;;;;;;;5.07;3.50;;;16.40;48.30;;;;;;5102926;27;45832;-68
2023/01/18 04:21:15;;;;;;;5.30;3.00;;;16.30;47.60;;;;;;5103570;27;45414;-68
2023/01/18 04:23:41;;;;;;;7.00;2.95;;;16.30;49.50;;;;;;5097627;27;45467;-68
2023/01/18 04:26:10;;;;;;;4.68;3.42;;;16.30;49.60;;;;;;5096411;27;46555;-69
2023/01/18 04:28:37;;;;;;;5.65;3.20;;;16.30;48.70;;;;;;5100320;27;45274;-68
2023/01/18 04:31:04;;;;;;;5.00;3.35;;;16.30;47.90;;;;;;5103280;27;45374;-68
2023/01/18 04:33:30;;;;;;;5.75;3.42;;;16.20;47.00;;;;;;5103372;27;45313;-68
2023/01/18 04:35:59;;;;;;;5.38;3.00;;;16.30;47.10;;;;;;5099646;27;47800;-68
2023/01/18 04:38:27;;;;;;;6.47;3.42;;;16.30;48.00;;;;;;5100411;27;45245;-68
2023/01/18 04:40:54;;;;;;;5.40;3.35;;;16.20;48.10;;;;;;5102390;27;45482;-68
2023/01/18 04:43:20;;;;;;;5.57;3.30;;;16.20;47.70;;;;;;5098591;27;45420;-68
2023/01/18 04:45:54;;;;;;;7.75;3.58;;;16.20;47.30;;;;;;5102648;27;46629;-68
2023/01/18 04:48:21;;;;;;;8.35;3.65;;;16.20;47.20;;;;;;5102406;27;45310;-68
2023/01/18 04:50:48;;;;;;;9.07;3.28;;;16.20;46.50;;;;;;5107970;27;45371;-68
2023/01/18 04:53:17;;;;;;;5.90;3.20;;;16.20;47.00;;;;;;5107233;27;45383;-68
2023/01/18 04:55:44;;;;;;;6.65;3.20;;;16.20;46.50;;;;;;5105312;27;45517;-68
2023/01/18 04:58:10;;;;;;;5.63;3.00;;;16.10;47.40;;;;;;5104138;27;45296;-68
2023/01/18 05:00:38;;;;;;;6.60;3.22;;;16.10;45.70;;;;;;5102969;27;45409;-68
2023/01/18 05:03:05;;;;;;;7.60;3.85;;;16.10;44.90;;;;;;5098262;27;45415;-68
2023/01/18 05:05:32;;;;;;;7.60;3.65;;;16.10;44.70;;;;;;5103009;27;47014;-69
2023/01/18 05:07:59;;;;;;;6.25;3.97;;;16.10;44.30;;;;;;5101974;27;45571;-68
2023/01/18 05:10:27;;;;;;;8.00;3.90;;;16.10;44.30;;;;;;5114895;27;45430;-68
2023/01/18 05:12:53;;;;;;;9.60;3.78;;;16.10;44.30;;;;;;5111568;27;45213;-68
2023/01/18 05:15:20;;;;;;;7.82;4.18;;;16.10;44.10;;;;;;5103185;27;46565;-68
2023/01/18 05:17:47;;;;;;;7.68;3.80;;;16.10;43.90;;;;;;5106393;27;45730;-68
2023/01/18 05:20:14;;;;;;;8.57;3.88;;;16.10;43.90;;;;;;5110608;27;45393;-68
2023/01/18 05:22:40;;;;;;;7.57;3.75;;;16.10;43.90;;;;;;5113451;27;45399;-68
2023/01/18 05:25:08;;;;;;;9.20;4.03;;;16.00;43.60;;;;;;5102216;27;46613;-69
2023/01/18 05:27:36;;;;;;;7.50;3.97;;;16.00;43.60;;;;;;5107142;27;45405;-69
2023/01/18 05:30:03;;;;;;;10.43;4.13;;;16.00;43.60;;;;;;5104466;27;45455;-68
2023/01/18 05:32:30;;;;;;;6.03;3.47;;;16.00;43.30;;;;;;5104140;27;45401;-68
2023/01/18 05:34:56;;;;;;;8.50;3.83;;;16.00;43.30;;;;;;5104828;27;47531;-68
2023/01/18 05:37:23;;;;;;;7.00;3.83;;;16.00;44.10;;;;;;5111382;27;45334;-68
2023/01/18 05:39:50;;;;;;;7.60;3.75;;;16.00;43.80;;;;;;5107385;27;45362;-69
2023/01/18 05:42:17;;;;;;;7.55;3.85;;;16.00;43.80;;;;;;5105715;27;45332;-68
2023/01/18 05:44:45;;;;;;;9.38;3.92;;;16.00;44.40;;;;;;5107762;27;46274;-68
2023/01/18 05:47:12;;;;;;;7.97;3.78;;;16.00;43.90;;;;;;5098731;27;45509;-69
2023/01/18 05:49:39;;;;;;;8.77;4.18;;;16.00;44.10;;;;;;5102564;27;45586;-68
2023/01/18 05:52:07;;;;;;;7.45;3.08;;;16.00;43.70;;;;;;5102143;27;45791;-69
2023/01/18 05:54:33;;;;;;;6.55;3.92;;;16.00;45.90;;;;;;5104205;27;47345;-68
2023/01/18 05:57:00;;;;;;;7.72;4.00;;;16.00;45.90;;;;;;5105697;27;45371;-68
2023/01/18 05:59:27;;;;;;;5.95;3.60;;;16.00;45.10;;;;;;5114214;27;45409;-68
2023/01/18 06:01:55;;;;;;;6.95;3.90;;;16.00;44.20;;;;;;5108175;27;45588;-69
2023/01/18 06:04:22;;;;;;;7.75;3.72;;;16.00;44.10;;;;;;5098401;27;45504;-68
2023/01/18 06:06:49;;;;;;;6.72;4.00;;;16.00;43.80;;;;;;5099006;27;45501;-68
2023/01/18 06:09:15;;;;;;;5.78;3.60;;;16.00;43.60;;;;;;5106170;27;45322;-68
2023/01/18 06:11:42;;;;;;;7.47;3.90;;;16.00;43.40;;;;;;5106503;27;45301;-68
2023/01/18 06:14:09;;;;;;;6.00;3.75;;;15.90;43.10;;;;;;5104768;27;46576;-68
2023/01/18 06:16:36;;;;;;;7.82;3.78;;;15.90;42.90;;;;;;5107599;27;45277;-69
2023/01/18 06:19:04;;;;;;;9.50;3.58;;;16.00;43.00;;;;;;5097175;27;45293;-68
2023/01/18 06:21:31;;;;;;;7.60;3.80;;;15.90;42.80;;;;;;5096866;27;45559;-68
2023/01/18 06:23:57;;;;;;;5.78;3.60;;;15.90;42.70;;;;;;5098638;27;46601;-68
2023/01/18 06:26:24;;;;;;;7.93;3.78;;;15.90;42.60;;;;;;5106163;27;46114;-68
2023/01/18 06:28:52;;;;;;;9.23;3.97;;;16.00;43.30;;;;;;5098996;27;45389;-69
2023/01/18 06:31:19;;;;;;;8.98;3.65;;;16.00;43.40;;;;;;5102119;27;45304;-69
2023/01/18 06:33:45;;;;;;;8.55;3.53;;;16.00;43.30;;;;;;5099534;27;46766;-68
2023/01/18 06:36:14;;;;;;;8.00;3.65;;;16.00;43.70;;;;;;5101281;27;45317;-69
2023/01/18 06:38:41;;;;;;;7.05;3.92;;;16.00;43.70;;;;;;5094497;27;45257;-68
2023/01/18 06:41:08;;;;;;;6.47;3.40;;;16.00;43.90;;;;;;5105716;27;45553;-68
2023/01/18 06:43:35;;;;;;;7.50;3.38;;;16.00;43.40;;;;;;5101258;27;45328;-68
2023/01/18 06:46:06;;;;;;;6.25;4.00;;;16.00;43.70;;;;;;5103849;27;45464;-68
2023/01/18 06:48:33;;;;;;;5.78;3.17;;;16.00;43.30;;;;;;5104220;27;45261;-68
2023/01/18 06:51:00;;;;;;;8.57;4.18;;;16.00;42.90;;;;;;5102184;27;45654;-68
2023/01/18 06:53:29;;;;;;;7.97;3.45;;;16.00;42.50;;;;;;5107729;27;46111;-69
2023/01/18 06:55:57;;;;;;;8.48;3.75;;;16.00;42.50;;;;;;5112733;27;45959;-68
2023/01/18 06:58:24;;;;;;;9.07;3.65;;;16.00;42.50;;;;;;5099510;27;45304;-68
2023/01/18 07:00:53;;;;;;;9.90;4.22;;;16.00;42.50;;;;;;5105050;27;45469;-68
2023/01/18 07:03:20;;;;;;;9.90;4.00;;;16.00;42.20;;;;;;5098543;27;48354;-68
2023/01/18 07:05:47;;;;;;;6.65;3.55;;;15.90;41.80;;;;;;5098701;27;45462;-69
2023/01/18 07:08:14;;;;;;;6.95;3.78;;;15.90;41.90;;;;;;5098292;27;45391;-69
2023/01/18 07:10:42;;;;;;;9.68;3.92;;;15.90;42.00;;;;;;5100845;27;45701;-69
2023/01/18 07:13:09;;;;;;;7.20;3.22;;;15.90;43.10;;;;;;5104909;27;45450;-68
2023/01/18 07:15:35;;;;;;;9.88;4.10;;;15.90;42.00;;;;;;5093777;27;45377;-68
2023/01/18 07:18:02;;;;;;;6.78;3.70;;;15.90;41.80;;;;;;5102906;27;45277;-69
2023/01/18 07:20:29;;;;;;;8.95;3.10;;;15.90;41.80;;;;;;5094748;27;45451;-68
2023/01/18 07:22:57;;;;;;;6.97;3.55;;;15.90;42.60;;;;;;5102249;27;47384;-68
2023/01/18 07:25:26;;;;;;;6.75;3.50;;;16.00;42.70;;;;;;5113853;27;45832;-68
2023/01/18 07:27:57;;;;;;;6.60;3.40;;;16.00;42.80;;;;;;5105222;27;45375;-68
2023/01/18 07:30:23;;;;;;;10.07;3.70;;;16.00;42.60;;;;;;5093379;27;45505;-68
2023/01/18 07:32:52;;;;;;;10.95;3.45;;;16.00;43.00;;;;;;5103565;27;45526;-68
2023/01/18 07:35:21;;;;;;;6.60;3.50;;;16.00;43.10;;;;;;5096822;27;45282;-68
2023/01/18 07:37:49;;;;;;;8.40;3.63;;;16.00;42.90;;;;;;5091302;27;45399;-68
2023/01/18 07:40:17;;;;;;;6.90;3.33;;;16.00;43.00;;;;;;5090811;27;45383;-68
2023/01/18 07:42:43;;;;;;;9.38;3.40;;;16.00;43.10;;;;;;5090913;27;45697;-68
2023/01/18 07:45:12;;;;;;;7.95;3.53;;;16.00;42.30;;;;;;5097784;27;45470;-68
2023/01/18 07:47:39;;;;;;;7.88;3.97;;;15.90;42.00;;;;;;5094770;27;45393;-69
2023/01/18 07:50:07;;;;;;;11.88;3.90;;;16.00;42.20;;;;;;5092188;27;45356;-68
2023/01/18 07:52:34;;;;;;;6.78;3.33;;;15.90;41.80;;;;;;5090825;27;46598;-68
2023/01/18 07:55:01;;;;;;;7.32;3.97;;;16.00;41.90;;;;;;5088821;27;45588;-68
2023/01/18 07:57:28;;;;;;;6.63;3.08;;;15.90;41.80;;;;;;5099055;27;45407;-68
2023/01/18 07:59:55;;;;;;;8.13;4.03;;;15.90;41.50;;;;;;5097108;27;45405;-68
2023/01/18 08:02:23;;;;;;;5.55;3.00;;;15.90;42.70;;;;;;5102866;27;47288;-68
2023/01/18 08:04:50;;;;;;;7.00;3.90;;;15.90;41.60;;;;;;5092580;27;45458;-69
2023/01/18 08:07:17;;;;;;;7.35;3.67;;;15.90;41.40;;;;;;5103240;27;45383;-68
2023/01/18 08:09:44;;;;;;;6.15;3.40;;;15.90;41.40;;;;;;5098639;27;45358;-68
2023/01/18 08:12:12;;;;;;;6.22;3.70;;;15.90;41.30;;;;;;5102625;27;46102;-68
2023/01/18 08:14:39;;;;;;;6.18;3.70;;;15.90;41.40;;;;;;5103586;27;45359;-69
2023/01/18 08:17:06;;;;;;;7.03;3.30;;;15.90;41.40;;;;;;5102926;27;45316;-68
2023/01/18 08:19:35;;;;;;;7.18;4.13;;;15.90;41.70;;;;;;5096987;27;45434;-68
2023/01/18 08:22:02;;;;;;;11.80;4.18;;;15.90;41.80;;;;;;5095736;27;47179;-68
2023/01/18 08:24:29;;;;;;;7.40;3.83;;;16.00;42.20;;;;;;5103704;27;45464;-68
2023/01/18 08:26:56;;;;;;;39.03;5.00;;;16.00;42.60;;;;;;5102767;27;45439;-68
2023/01/18 08:29:22;;;;;;;10.20;4.28;;;16.00;44.50;;;;;;5100589;27;45490;-68
2023/01/18 08:31:51;;;;;;;10.07;3.50;;;16.10;45.40;;;;;;5102619;27;46538;-68
2023/01/18 08:34:17;;;;;;;7.43;3.97;;;16.00;44.50;;;;;;5103087;27;45430;-67
2023/01/18 08:36:46;;;;;;;6.68;3.85;;;16.00;44.30;;;;;;5102343;27;45265;-68
2023/01/18 08:39:13;;;;;;;8.02;4.15;;;16.00;44.70;;;;;;5096094;27;45362;-68
2023/01/18 08:41:40;;;;;;;8.52;4.22;;;16.00;43.20;;;;;;5106350;27;45414;-68
2023/01/18 08:44:07;;;;;;;12.63;4.97;;;16.00;42.50;;;;;;5102282;27;45248;-68
2023/01/18 08:46:35;;;;;;;12.13;4.35;;;16.00;42.20;;;;;;5100164;27;45206;-68
2023/01/18 08:49:04;;;;;;;7.13;4.20;;;16.00;42.10;;;;;;5104750;27;45450;-68
2023/01/18 08:51:31;;;;;;;9.20;3.92;;;15.90;42.10;;;;;;5105394;27;48112;-68
2023/01/18 08:54:00;;;;;;;6.53;3.83;;;15.90;41.90;;;;;;5105902;27;45353;-69
2023/01/18 08:56:27;;;;;;;6.30;3.53;;;15.90;41.60;;;;;;5099909;27;45344;-69
2023/01/18 08:58:54;;;;;;;7.00;3.78;;;15.90;41.60;;;;;;5116873;27;45419;-68
2023/01/18 09:01:21;;;;;;;6.18;3.95;;;16.00;41.50;;;;;;5118550;27;45402;-67
2023/01/18 09:03:49;;;;;;;10.68;3.88;;;16.00;41.30;;;;;;5107230;27;45404;-68
2023/01/18 09:06:16;;;;;;;7.15;3.45;;;16.00;41.20;;;;;;5106937;27;45496;-68
2023/01/18 09:08:46;;;;;;;7.97;3.58;;;16.00;41.20;;;;;;5107743;27;45478;-68
2023/01/18 09:11:14;;;;;;;5.85;3.63;;;16.00;41.00;;;;;;5109150;27;45479;-68
2023/01/18 09:13:41;;;;;;;6.25;3.42;;;16.00;40.90;;;;;;5093932;27;45325;-68
2023/01/18 09:16:10;;;;;;;8.00;3.78;;;16.10;40.80;;;;;;5093811;27;45532;-68
2023/01/18 09:18:37;;;;;;;7.82;3.40;;;16.10;40.90;;;;;;5089662;27;45419;-68
2023/01/18 09:21:06;;;;;;;8.30;3.88;;;16.20;40.80;;;;;;5095160;27;47537;-68
2023/01/18 09:23:33;;;;;;;7.10;3.75;;;16.20;41.00;;;;;;5102090;27;45981;-68
2023/01/18 09:26:07;;;;;;;8.73;3.35;;;16.20;41.00;;;;;;5097132;27;45388;-68
2023/01/18 09:28:36;;;;;;;7.03;3.33;;;16.20;40.90;;;;;;5110850;27;45367;-67
2023/01/18 09:31:04;;;;;;;8.85;3.47;;;16.20;40.90;;;;;;5111827;27;47541;-68
2023/01/18 09:33:31;;;;;;;6.80;3.90;;;16.30;41.00;;;;;;5105585;27;45299;-68
2023/01/18 09:36:02;;;;;;;7.95;3.50;;;16.30;41.00;;;;;;5105005;27;45402;-68
2023/01/18 09:38:30;;;;;;;7.90;3.45;;;16.30;41.10;;;;;;5106069;27;45423;-67
2023/01/18 09:40:57;;;;;;;6.18;3.28;;;16.30;41.10;;;;;;5100751;27;45541;-68
2023/01/18 09:43:29;;;;;;;6.63;3.13;;;16.30;41.00;;;;;;5105324;27;45846;-68
2023/01/18 09:45:58;;;;;;;6.25;3.20;;;16.20;41.00;;;;;;5101238;27;45416;-68
2023/01/18 09:48:31;;;;;;;7.53;3.58;;;16.20;41.10;;;;;;5098806;27;45523;-68
2023/01/18 09:51:02;;;;;;;4.90;3.17;;;16.20;41.00;;;;;;5103559;27;47068;-68
2023/01/18 09:53:58;;;;;;;6.32;3.20;;;16.20;41.20;;;;;;5087497;27;45410;-68
2023/01/18 09:56:27;;;;;;;6.55;3.28;;;16.20;41.10;;;;;;5100213;27;45383;-68
2023/01/18 09:59:05;;;;;;;8.73;3.28;;;16.20;41.20;;;;;;5106022;27;45470;-68
2023/01/18 10:01:35;;;;;;;9.60;3.63;;;16.20;41.40;;;;;;5104600;27;45482;-68
2023/01/18 10:04:05;;;;;;;7.53;3.83;;;16.20;41.30;;;;;;5104053;27;45508;-68
2023/01/18 10:06:42;;;;;;;7.18;3.55;;;16.20;41.20;;;;;;5104908;27;45331;-68
2023/01/18 10:09:15;;;;;;;7.97;3.42;;;16.20;41.10;;;;;;5105680;27;45287;-67
2023/01/18 10:11:47;;;;;;;8.57;3.75;;;16.20;41.20;;;;;;5097926;27;45510;-68
2023/01/18 10:14:21;;;;;;;6.15;3.28;;;16.20;41.10;;;;;;5090611;27;45323;-68
2023/01/18 10:16:56;;;;;;;10.30;4.18;;;16.20;40.90;;;;;;5094014;27;45308;-68
2023/01/18 10:19:28;;;;;;;8.27;3.65;;;16.20;40.80;;;;;;5105471;27;45490;-68
2023/01/18 10:21:59;;;;;;;5.78;3.20;;;16.20;40.80;;;;;;5099323;27;45314;-68
2023/01/18 10:24:40;;;;;;;9.02;3.58;;;16.20;42.00;;;;;;5105374;27;45325;-67
2023/01/18 10:27:28;;;;;;;7.28;3.25;;;16.20;40.80;;;;;;5097515;27;45374;-67
2023/01/18 10:30:16;;;;;;;9.63;3.90;;;16.20;40.70;;;;;;5105038;27;45451;-68
2023/01/18 10:32:51;;;;;;;11.52;3.70;;;16.30;41.40;;;;;;5104671;27;46529;-68
2023/01/18 10:35:27;;;;;;;7.13;3.63;;;16.30;43.50;;;;;;5104197;27;45457;-68
2023/01/18 10:37:58;;;;;;;10.23;4.15;;;16.30;42.90;;;;;;5099063;27;45233;-68
2023/01/18 10:40:25;;;;;;;12.25;4.65;;;16.30;42.60;;;;;;5105873;27;45502;-68
2023/01/18 10:42:58;;;;;;;8.35;3.95;;;16.20;42.50;;;;;;5110667;27;46281;-68
2023/01/18 10:45:27;;;;;;;8.85;3.80;;;16.20;42.80;;;;;;5101429;27;45476;-68
2023/01/18 10:47:57;;;;;;;8.82;4.35;;;16.20;42.30;;;;;;5102521;27;45573;-68
2023/01/18 10:50:35;;;;;;;8.93;3.90;;;16.20;42.00;;;;;;5096942;27;45328;-68
2023/01/18 10:53:20;;;;;;;6.20;3.40;;;16.20;41.50;;;;;;5089079;27;45319;-68
2023/01/18 10:55:54;;;;;;;7.40;3.88;;;16.20;41.30;;;;;;5097159;27;45736;-67
2023/01/18 10:58:29;;;;;;;8.93;4.22;;;16.20;41.40;;;;;;5097543;27;45369;-68
2023/01/18 11:00:58;;;;;;;10.50;4.03;;;16.20;41.50;;;;;;5103547;27;45595;-67
2023/01/18 11:03:27;;;;;;;7.40;3.80;;;16.20;41.40;;;;;;5098978;27;45355;-68
2023/01/18 11:06:05;;;;;;;7.97;3.40;;;16.20;41.30;;;;;;5102952;27;45273;-68
2023/01/18 11:08:34;;;;;;;6.50;3.70;;;16.20;41.20;;;;;;5105533;27;45359;-68
2023/01/18 11:11:03;;;;;;;7.93;3.85;;;16.20;41.20;;;;;;5103130;27;45474;-69
2023/01/18 11:13:33;;;;;;;8.55;3.28;;;16.20;41.20;;;;;;5093573;27;47694;-68
2023/01/18 11:16:06;;;;;;;7.53;3.80;;;16.20;41.40;;;;;;5110857;27;45371;-68
2023/01/18 11:18:34;;;;;;;11.23;3.90;;;16.20;41.50;;;;;;5090420;27;45639;-68
2023/01/18 11:21:01;;;;;;;9.23;4.22;;;16.20;41.20;;;;;;5091174;27;45456;-68
2023/01/18 11:23:34;;;;;;;8.35;3.80;;;16.20;41.30;;;;;;5091810;27;48375;-68
2023/01/18 11:26:04;;;;;;;9.05;3.80;;;16.20;41.10;;;;;;5100528;27;45358;-68
2023/01/18 11:28:38;;;;;;;5.78;3.38;;;16.20;41.00;;;;;;5106131;27;45389;-68
2023/01/18 11:31:11;;;;;;;10.38;3.60;;;16.20;41.20;;;;;;5103177;27;45509;-68
2023/01/18 11:33:48;;;;;;;10.90;3.50;;;16.20;41.30;;;;;;5103165;27;45951;-68
2023/01/18 11:36:15;;;;;;;7.75;3.38;;;16.20;41.30;;;;;;5103714;27;45658;-68
2023/01/18 11:38:42;;;;;;;20.85;5.07;;;16.20;41.40;;;;;;5105014;27;45366;-70
2023/01/18 11:41:18;;;;;;;10.90;3.63;;;16.20;42.90;;;;;;5105038;27;45510;-67
2023/01/18 11:43:58;;;;;;;17.40;3.47;;;16.30;47.70;;;;;;5100820;27;46428;-67
2023/01/18 11:46:34;;;;;;;13.18;3.67;;;16.40;47.30;;;;;;5104715;27;45549;-67
2023/01/18 11:49:11;;;;;;;15.00;3.65;;;16.30;48.20;;;;;;5096958;27;45422;-67
2023/01/18 11:51:45;;;;;;;8.80;3.10;;;16.30;45.50;;;;;;5103527;27;45343;-67
2023/01/18 11:54:25;;;;;;;7.95;2.95;;;16.20;44.90;;;;;;5101231;27;46269;-67
2023/01/18 11:56:55;;;;;;;5.50;3.10;;;16.20;44.80;;;;;;5099105;27;45339;-67
2023/01/18 11:59:26;;;;;;;9.68;2.97;;;16.20;45.00;;;;;;5100979;27;45491;-67
2023/01/18 12:02:35;;;;;;;7.35;2.90;;;16.20;45.20;;;;;;5101793;27;45462;-67
2023/01/18 12:05:21;;;;;;;6.07;2.63;;;16.20;45.50;;;;;;5083093;27;46236;-67
2023/01/18 12:07:56;;;;;;;9.82;3.55;;;16.20;45.60;;;;;;5101583;27;45471;-67
2023/01/18 12:10:25;;;;;;;7.15;2.92;;;16.20;45.70;;;;;;5103653;27;45349;-67
2023/01/18 12:13:22;;;;;;;7.28;3.00;;;16.20;46.00;;;;;;5096992;27;45559;-67
2023/01/18 12:16:01;;;;;;;6.05;2.90;;;16.20;46.10;;;;;;5102482;27;47541;-66
2023/01/18 12:18:47;;;;;;;6.38;3.03;;;16.20;46.30;;;;;;5097671;27;45449;-67
2023/01/18 12:21:22;;;;;;;6.90;2.67;;;16.30;46.60;;;;;;5105893;27;45461;-67
2023/01/18 12:24:07;;;;;;;4.90;2.75;;;16.20;46.60;;;;;;5108278;27;45489;-67
2023/01/18 12:26:54;;;;;;;6.60;2.70;;;16.20;46.70;;;;;;5089183;27;45363;-67
2023/01/18 12:29:47;;;;;;;4.50;2.70;;;16.20;47.00;;;;;;5100569;27;45498;-68
2023/01/18 12:32:28;;;;;;;6.05;2.65;;;16.20;47.00;;;;;;5106082;27;45570;-67
2023/01/18 12:35:07;;;;;;;7.45;2.60;;;16.20;47.30;;;;;;5101307;27;45431;-67
2023/01/18 12:37:43;;;;;;;4.75;2.50;;;16.20;50.50;;;;;;5093629;27;48038;-67
2023/01/18 12:40:27;;;;;;;5.45;2.67;;;16.30;50.60;;;;;;5102126;27;45364;-67
2023/01/18 12:43:05;;;;;;;5.13;2.53;;;16.30;49.60;;;;;;5081055;27;45696;-67
2023/01/18 12:45:37;;;;;;;5.00;2.50;;;16.30;49.50;;;;;;5090446;27;45450;-67
2023/01/18 12:48:15;;;;;;;5.97;2.35;;;16.30;49.20;;;;;;5101065;27;45586;-67
2023/01/18 12:50:44;;;;;;;7.93;2.67;;;16.30;48.90;;;;;;5100246;27;45378;-67
2023/01/18 12:53:18;;;;;;;5.55;2.70;;;16.30;48.90;;;;;;5100187;27;45316;-67
2023/01/18 12:55:49;;;;;;;4.68;2.35;;;16.30;48.80;;;;;;5100022;27;45365;-68
2023/01/18 12:58:20;;;;;;;6.63;2.30;;;16.40;49.20;;;;;;5111898;27;47449;-67
2023/01/18 13:00:52;;;;;;;4.28;1.92;;;16.40;49.80;;;;;;5110539;27;45446;-67
2023/01/18 13:03:23;;;;;;;4.55;2.10;;;16.40;50.20;;;;;;5095181;27;45355;-67
2023/01/18 13:05:55;;;;;;;3.85;2.40;;;16.50;50.30;;;;;;5098618;27;45341;-67
2023/01/18 13:08:33;;;;;;;6.03;2.15;;;16.50;49.80;;;;;;5102789;27;47088;-67
2023/01/18 13:11:06;;;;;;;7.60;2.42;;;16.50;49.80;;;;;;5101479;27;45430;-68
2023/01/18 13:13:34;;;;;;;4.93;2.35;;;16.50;49.40;;;;;;5103432;27;45332;-67
2023/01/18 13:16:11;;;;;;;5.55;2.40;;;16.50;49.10;;;;;;5102431;27;45388;-67
2023/01/18 13:18:46;;;;;;;4.25;2.00;;;16.50;48.50;;;;;;5095269;27;45225;-67
2023/01/18 13:21:23;;;;;;;3.13;2.05;;;16.50;48.50;;;;;;5100533;27;45221;-67
2023/01/18 13:23:59;;;;;;;2.63;1.80;;;16.50;48.30;;;;;;5101553;27;45346;-67
2023/01/18 13:26:29;;;;;;;3.92;2.10;;;16.50;48.30;;;;;;5102116;27;45494;-67
2023/01/18 13:29:15;;;;;;;5.22;2.20;;;16.50;48.40;;;;;;5096695;27;46319;-67
2023/01/18 13:31:44;;;;;;;3.60;2.10;;;16.50;48.60;;;;;;5103447;27;45245;-68
2023/01/18 13:34:25;;;;;;;4.57;1.92;;;16.50;49.10;;;;;;5103520;27;45307;-67
2023/01/18 13:36:52;;;;;;;3.47;2.20;;;16.60;48.10;;;;;;5102905;27;45438;-68